Time;durP1;ratioP1;P1;durP2;ratioP2;P2;SDS_P1;SDS_P2;PMS_P1;PMS_P2;Temp;Humidity;BMP_temperature;BMP_pressure;BME280_temperature;BME280_humidity;BME280_pressure;Samples;Min_cycle;Max_cycle;Signal;HPM_P1;HPM_P2
2023/04/23 00:00:05;;;;;;;64.43;33.72;;;8.60;99.90;;;;;;5089625;28;20075;-83
2023/04/23 00:02:35;;;;;;;63.97;34.38;;;8.50;99.90;;;;;;5083512;28;20047;-83
2023/04/23 00:05:05;;;;;;;68.40;33.75;;;8.50;99.90;;;;;;5060681;28;20058;-82
2023/04/23 00:07:32;;;;;;;61.00;33.03;;;8.40;99.90;;;;;;5077069;28;20047;-83
2023/04/23 00:09:59;;;;;;;63.50;32.47;;;9.10;99.90;;;;;;5092825;28;20055;-83
2023/04/23 00:12:28;;;;;;;62.92;31.48;;;8.40;99.90;;;;;;5077101;28;20051;-82
2023/04/23 00:15:00;;;;;;;57.85;32.03;;;8.40;99.90;;;;;;5061317;28;20200;-82
2023/04/23 00:17:26;;;;;;;63.03;31.23;;;8.40;99.90;;;;;;5074404;28;20150;-82
2023/04/23 00:19:52;;;;;;;65.88;32.78;;;8.40;99.90;;;;;;5075545;28;20063;-82
2023/04/23 00:22:19;;;;;;;67.60;33.92;;;8.40;99.90;;;;;;5093253;28;20505;-83
2023/04/23 00:24:46;;;;;;;66.85;32.30;;;8.30;99.90;;;;;;5076139;28;20502;-83
2023/04/23 00:27:17;;;;;;;65.05;33.03;;;8.30;99.90;;;;;;5077200;28;20074;-82
2023/04/23 00:29:43;;;;;;;62.45;32.90;;;8.30;99.90;;;;;;5059275;28;20489;-83
2023/04/23 00:32:10;;;;;;;61.67;31.63;;;8.30;99.90;;;;;;5076145;28;20067;-82
2023/04/23 00:34:42;;;;;;;72.65;33.45;;;8.30;99.90;;;;;;5092364;28;20449;-82
2023/04/23 00:37:09;;;;;;;63.55;32.60;;;8.30;99.90;;;;;;5091998;28;20126;-81
2023/04/23 00:39:37;;;;;;;67.78;32.90;;;8.30;99.90;;;;;;5075452;28;20051;-82
2023/04/23 00:42:11;;;;;;;62.75;32.28;;;8.30;99.90;;;;;;5092476;28;20055;-81
2023/04/23 00:44:41;;;;;;;66.90;33.35;;;8.30;99.90;;;;;;5092390;28;20376;-81
2023/04/23 00:47:08;;;;;;;67.00;33.47;;;8.20;99.90;;;;;;5075095;28;20055;-83
2023/04/23 00:50:00;;;;;;;64.25;32.70;;;8.20;99.90;;;;;;5110202;28;20043;-81
2023/04/23 00:52:28;;;;;;;67.65;32.72;;;8.20;99.90;;;;;;5109556;28;20066;-82
2023/04/23 00:55:01;;;;;;;64.65;33.05;;;8.20;99.90;;;;;;5091880;28;20082;-83
2023/04/23 00:57:29;;;;;;;60.90;32.33;;;8.10;99.90;;;;;;5107724;28;20121;-82
2023/04/23 01:00:19;;;;;;;65.10;33.30;;;8.20;99.90;;;;;;5094342;28;20051;-83
2023/04/23 01:02:52;;;;;;;61.40;31.52;;;8.10;99.90;;;;;;5108407;28;20055;-83
2023/04/23 01:05:32;;;;;;;64.45;32.20;;;8.10;99.90;;;;;;5095666;28;20450;-83
2023/04/23 01:08:15;;;;;;;58.72;32.65;;;8.10;99.90;;;;;;5091839;28;20116;-82
2023/04/23 01:10:51;;;;;;;61.10;33.50;;;8.10;99.90;;;;;;5078253;28;20054;-83
2023/04/23 01:13:28;;;;;;;63.70;32.80;;;8.10;99.90;;;;;;5085141;28;20056;-82
2023/04/23 01:16:04;;;;;;;64.07;32.10;;;8.10;99.90;;;;;;5092403;28;20043;-81
2023/04/23 01:18:36;;;;;;;62.63;32.50;;;8.00;99.90;;;;;;5056322;28;20167;-82
2023/04/23 01:21:03;;;;;;;66.38;33.75;;;8.00;99.90;;;;;;5087664;28;20048;-81
2023/04/23 01:23:28;;;;;;;63.38;33.35;;;7.90;99.90;;;;;;5088253;28;20074;-83
2023/04/23 01:26:00;;;;;;;59.00;32.13;;;7.90;99.90;;;;;;5071814;28;20070;-82
2023/04/23 01:28:32;;;;;;;57.08;31.92;;;7.90;99.90;;;;;;5072491;28;20048;-82
2023/04/23 01:30:57;;;;;;;67.25;33.35;;;7.90;99.90;;;;;;5058905;28;20513;-83
2023/04/23 01:33:26;;;;;;;62.55;33.42;;;7.80;99.90;;;;;;5092403;28;20052;-82
2023/04/23 01:35:53;;;;;;;70.28;34.88;;;7.80;99.90;;;;;;5076220;28;20044;-80
2023/04/23 01:38:19;;;;;;;63.10;32.88;;;7.80;99.90;;;;;;5076037;28;20056;-80
2023/04/23 01:40:45;;;;;;;69.05;34.60;;;7.80;99.90;;;;;;5092463;28;20048;-83
2023/04/23 01:43:11;;;;;;;66.75;34.17;;;7.80;99.90;;;;;;5092171;28;20503;-83
2023/04/23 01:45:38;;;;;;;67.75;34.15;;;7.70;99.90;;;;;;5075643;28;20083;-82
2023/04/23 01:48:12;;;;;;;68.65;34.97;;;7.70;99.90;;;;;;5059062;28;20499;-82
2023/04/23 01:50:45;;;;;;;71.93;35.42;;;7.70;99.90;;;;;;5092116;28;20051;-82
2023/04/23 01:53:11;;;;;;;76.22;36.30;;;7.70;99.90;;;;;;5091975;28;20064;-81
2023/04/23 01:56:01;;;;;;;67.97;34.75;;;7.70;99.90;;;;;;5077784;28;20043;-81
2023/04/23 01:58:29;;;;;;;73.25;36.65;;;7.70;99.90;;;;;;5076390;28;20058;-82
2023/04/23 02:01:13;;;;;;;71.68;36.75;;;7.70;99.90;;;;;;5090836;28;20044;-81
2023/04/23 02:03:46;;;;;;;78.85;38.58;;;7.10;99.90;;;;;;5043255;28;20490;-81
2023/04/23 02:06:20;;;;;;;91.20;41.65;;;7.70;99.90;;;;;;5099668;28;20068;-83
2023/04/23 02:09:02;;;;;;;88.50;40.75;;;7.70;99.90;;;;;;5100472;28;20055;-82
2023/04/23 02:11:28;;;;;;;85.68;40.53;;;7.60;99.90;;;;;;5058822;28;20055;-82
2023/04/23 02:14:05;;;;;;;90.68;42.35;;;7.60;99.90;;;;;;5091300;28;20052;-82
2023/04/23 02:16:44;;;;;;;87.90;39.85;;;7.60;99.90;;;;;;5041856;28;20423;-81
2023/04/23 02:19:11;;;;;;;93.57;43.53;;;7.60;99.90;;;;;;5073802;28;20326;-81
2023/04/23 02:21:37;;;;;;;94.43;43.33;;;7.60;99.90;;;;;;5074657;28;20401;-81
2023/04/23 02:24:41;;;;;;;102.50;43.85;;;7.60;99.90;;;;;;5092801;28;20043;-84
2023/04/23 02:27:19;;;;;;;95.45;43.83;;;7.50;99.90;;;;;;5077110;28;20169;-80
2023/04/23 02:29:58;;;;;;;103.65;45.28;;;7.50;99.90;;;;;;5091040;28;20052;-82
2023/04/23 02:32:54;;;;;;;97.88;44.65;;;7.50;99.90;;;;;;5074462;28;20063;-82
2023/04/23 02:35:44;;;;;;;111.50;46.28;;;7.30;99.90;;;;;;5089927;28;20060;-82
2023/04/23 02:38:31;;;;;;;107.93;44.88;;;7.50;99.90;;;;;;5091445;28;20070;-81
2023/04/23 02:41:01;;;;;;;113.38;46.80;;;7.40;99.90;;;;;;5088518;28;20092;-82
2023/04/23 02:43:50;;;;;;;107.35;45.83;;;7.40;99.90;;;;;;5091761;28;20067;-82
2023/04/23 02:50:10;;;;;;;114.28;49.08;;;7.30;99.90;;;;;;5079576;28;20063;-81
2023/04/23 02:52:47;;;;;;;115.95;47.50;;;7.20;99.90;;;;;;5092957;28;20443;-81
2023/04/23 02:55:52;;;;;;;105.03;45.67;;;7.20;99.90;;;;;;5089835;28;20138;-82
2023/04/23 02:58:46;;;;;;;118.03;48.38;;;6.50;99.90;;;;;;5106037;28;20109;-82
2023/04/23 03:02:26;;;;;;;109.05;47.42;;;7.10;99.90;;;;;;5087891;28;20411;-82
2023/04/23 03:05:30;;;;;;;111.65;46.35;;;7.10;99.90;;;;;;5091722;28;20062;-82
2023/04/23 03:08:22;;;;;;;116.88;46.25;;;7.00;99.90;;;;;;5091173;28;20526;-82
2023/04/23 03:10:57;;;;;;;115.03;47.45;;;7.00;99.90;;;;;;5089493;28;20110;-81
2023/04/23 03:13:47;;;;;;;110.97;46.63;;;6.90;99.90;;;;;;5057605;28;20051;-82
2023/04/23 03:16:36;;;;;;;112.63;46.55;;;6.90;99.90;;;;;;5090373;28;20055;-82
2023/04/23 03:19:28;;;;;;;118.10;47.85;;;6.90;99.90;;;;;;5096393;28;20067;-82
2023/04/23 03:22:21;;;;;;;126.35;50.00;;;6.80;99.90;;;;;;5093125;28;20525;-80
2023/04/23 03:24:57;;;;;;;119.28;47.97;;;6.80;99.90;;;;;;5081375;28;20059;-82
2023/04/23 03:27:39;;;;;;;126.05;50.28;;;6.80;99.90;;;;;;5047179;28;20401;-81
2023/04/23 03:30:22;;;;;;;123.70;49.85;;;6.80;99.90;;;;;;5053712;28;20052;-80
2023/04/23 03:33:20;;;;;;;130.02;52.70;;;6.80;99.90;;;;;;5040184;28;20199;-82
2023/04/23 03:35:57;;;;;;;138.40;52.40;;;6.80;99.90;;;;;;5063198;28;20694;-83
2023/04/23 03:38:39;;;;;;;135.85;51.10;;;6.80;99.90;;;;;;5065886;28;20506;-81
2023/04/23 03:41:25;;;;;;;145.13;53.00;;;6.80;99.90;;;;;;5068020;28;20044;-83
2023/04/23 03:44:08;;;;;;;135.70;54.40;;;6.80;99.90;;;;;;5053366;28;20258;-82
2023/04/23 03:46:34;;;;;;;137.77;53.85;;;6.90;99.90;;;;;;5067891;28;20526;-81
2023/04/23 03:49:21;;;;;;;151.07;55.92;;;6.90;99.90;;;;;;5034357;28;20093;-81
2023/04/23 03:51:52;;;;;;;154.10;54.67;;;7.00;99.90;;;;;;5051523;28;20056;-82
2023/04/23 03:54:27;;;;;;;186.05;59.53;;;7.00;99.90;;;;;;5034956;28;20555;-82
2023/04/23 03:56:56;;;;;;;207.85;61.60;;;7.10;99.90;;;;;;5034484;28;20114;-82
2023/04/23 03:59:25;;;;;;;369.10;66.50;;;7.20;99.90;;;;;;5068272;28;20078;-82
2023/04/23 04:01:53;;;;;;;410.70;67.35;;;7.20;99.90;;;;;;5034300;28;20063;-81
2023/04/23 04:04:25;;;;;;;383.20;64.93;;;7.30;99.90;;;;;;5081129;28;20090;-82
2023/04/23 04:07:06;;;;;;;528.30;71.25;;;7.30;99.90;;;;;;5044174;28;20043;-81
2023/04/23 04:09:45;;;;;;;411.90;69.80;;;7.40;99.90;;;;;;5090527;28;20063;-82
2023/04/23 04:12:11;;;;;;;453.45;71.25;;;7.40;99.90;;;;;;5076671;28;20412;-82
2023/04/23 04:14:38;;;;;;;500.55;74.22;;;7.40;99.90;;;;;;5075550;28;20135;-82
2023/04/23 04:17:06;;;;;;;350.58;67.35;;;7.50;99.90;;;;;;5059692;28;20069;-80
2023/04/23 04:19:42;;;;;;;581.50;78.03;;;7.50;99.90;;;;;;5071782;28;20062;-82
2023/04/23 04:25:27;;;;;;;278.10;69.43;;;7.60;99.90;;;;;;5075843;28;20189;-82
2023/04/23 04:28:15;;;;;;;426.10;74.30;;;7.60;99.90;;;;;;5089713;28;20572;-81
2023/04/23 04:30:48;;;;;;;500.52;77.15;;;7.70;99.90;;;;;;5073647;28;20047;-81
2023/04/23 04:33:38;;;;;;;395.55;73.85;;;7.70;99.90;;;;;;5089780;28;20146;-82
2023/04/23 04:36:31;;;;;;;303.90;70.68;;;7.70;99.90;;;;;;5089654;28;20439;-82
2023/04/23 04:39:21;;;;;;;345.73;72.25;;;7.80;99.90;;;;;;5054839;28;20058;-83
2023/04/23 04:42:07;;;;;;;242.55;70.20;;;7.80;99.90;;;;;;5088553;28;20048;-81
2023/04/23 04:44:48;;;;;;;248.68;70.15;;;7.70;99.90;;;;;;5073432;28;20397;-82
2023/04/23 04:47:21;;;;;;;201.82;67.85;;;7.80;99.90;;;;;;5039071;28;20888;-81
2023/04/23 04:49:56;;;;;;;246.02;71.38;;;7.80;99.90;;;;;;5070324;28;20135;-81
2023/04/23 04:52:29;;;;;;;202.45;67.40;;;7.80;99.90;;;;;;5070820;28;20052;-82
2023/04/23 04:54:58;;;;;;;209.57;68.68;;;7.80;99.90;;;;;;5086107;28;20052;-83
2023/04/23 04:57:26;;;;;;;249.07;70.07;;;7.90;99.90;;;;;;5069951;28;20531;-81
2023/04/23 05:00:05;;;;;;;203.30;69.65;;;7.90;99.90;;;;;;5052393;28;20597;-82
2023/04/23 05:02:40;;;;;;;213.50;68.03;;;7.90;99.90;;;;;;5086914;28;20143;-82
2023/04/23 05:05:44;;;;;;;192.13;68.17;;;8.00;99.90;;;;;;5070955;28;20071;-81
2023/04/23 05:08:36;;;;;;;216.95;64.63;;;8.00;99.90;;;;;;5068732;28;20551;-81
2023/04/23 05:11:19;;;;;;;197.57;65.65;;;8.00;99.90;;;;;;5056157;28;20530;-81
2023/04/23 05:13:56;;;;;;;199.73;65.00;;;7.50;99.90;;;;;;5053717;28;20459;-82
2023/04/23 05:16:41;;;;;;;160.10;62.53;;;8.00;99.90;;;;;;5085065;28;20576;-82
2023/04/23 05:19:43;;;;;;;189.88;63.67;;;8.10;99.90;;;;;;5090243;28;20091;-84
2023/04/23 05:22:29;;;;;;;156.30;60.45;;;8.10;99.90;;;;;;5109403;28;20104;-82
2023/04/23 05:25:13;;;;;;;148.90;57.30;;;8.10;99.90;;;;;;5055954;28;20060;-81
2023/04/23 05:27:40;;;;;;;196.77;58.83;;;8.10;99.90;;;;;;5093134;28;20561;-81
2023/04/23 05:30:08;;;;;;;151.50;57.80;;;8.00;99.90;;;;;;5107790;28;20056;-82
2023/04/23 05:32:53;;;;;;;160.65;58.88;;;8.10;99.90;;;;;;5076712;28;20057;-82
2023/04/23 05:35:49;;;;;;;153.15;58.42;;;7.70;99.90;;;;;;5091427;28;20481;-81
2023/04/23 05:38:42;;;;;;;157.13;58.42;;;8.10;99.90;;;;;;5097296;28;20046;-81
2023/04/23 05:41:21;;;;;;;140.40;58.00;;;8.10;99.90;;;;;;5093171;28;20047;-82
2023/04/23 05:43:52;;;;;;;137.45;57.38;;;8.10;99.90;;;;;;5109562;28;20491;-83
2023/04/23 05:46:34;;;;;;;150.18;57.85;;;8.10;99.90;;;;;;5074215;28;20131;-82
2023/04/23 05:49:13;;;;;;;140.77;57.95;;;8.20;99.90;;;;;;5060279;28;20170;-81
2023/04/23 05:51:42;;;;;;;141.93;58.25;;;8.20;99.90;;;;;;5089970;28;20087;-84
2023/04/23 05:54:10;;;;;;;132.40;57.85;;;8.30;99.90;;;;;;5074550;28;20040;-82
2023/04/23 05:57:00;;;;;;;135.48;56.13;;;8.30;99.90;;;;;;5089269;28;20060;-82
2023/04/23 06:00:10;;;;;;;128.82;55.60;;;8.40;99.90;;;;;;5094247;28;20048;-82
2023/04/23 06:02:39;;;;;;;127.40;56.90;;;8.10;99.90;;;;;;5062528;28;20132;-82
2023/04/23 06:05:06;;;;;;;121.32;56.70;;;9.70;99.90;;;;;;5090598;28;20077;-82
2023/04/23 06:07:36;;;;;;;125.97;55.70;;;8.80;99.90;;;;;;5108810;28;20083;-82
2023/04/23 06:10:07;;;;;;;119.30;56.95;;;8.90;99.90;;;;;;5106922;28;20095;-83
2023/04/23 06:12:40;;;;;;;123.45;57.00;;;9.00;99.90;;;;;;5090077;28;20067;-84
2023/04/23 06:15:10;;;;;;;113.78;56.05;;;9.20;99.90;;;;;;5092182;28;20047;-81
2023/04/23 06:17:43;;;;;;;115.03;56.22;;;9.70;99.90;;;;;;5093454;28;20047;-82
2023/04/23 06:20:11;;;;;;;95.85;49.10;;;10.60;99.90;;;;;;5089377;28;20142;-83
2023/04/23 06:22:56;;;;;;;94.30;52.05;;;11.10;99.90;;;;;;5089458;28;20064;-82
2023/04/23 06:25:26;;;;;;;85.20;48.13;;;11.10;99.90;;;;;;5074858;28;20060;-82
2023/04/23 06:28:02;;;;;;;77.95;45.72;;;11.20;99.90;;;;;;5092563;28;20051;-82
2023/04/23 06:30:27;;;;;;;77.88;46.97;;;11.00;99.90;;;;;;5091624;28;20051;-80
2023/04/23 06:32:53;;;;;;;76.70;46.95;;;11.50;99.90;;;;;;5091894;28;20118;-81
2023/04/23 06:35:19;;;;;;;69.63;44.25;;;12.00;99.90;;;;;;5075996;28;20047;-82
2023/04/23 06:37:45;;;;;;;70.88;45.25;;;12.40;99.90;;;;;;5074710;28;20051;-80
2023/04/23 06:40:10;;;;;;;66.63;42.80;;;12.60;99.90;;;;;;5074738;28;20075;-81
2023/04/23 06:42:36;;;;;;;67.30;43.95;;;13.00;99.90;;;;;;5091252;28;20078;-80
2023/04/23 06:45:05;;;;;;;62.10;41.33;;;13.60;99.90;;;;;;5091906;28;20140;-82
2023/04/23 06:47:30;;;;;;;62.90;42.25;;;14.30;99.90;;;;;;5092130;28;20152;-81
2023/04/23 06:49:59;;;;;;;58.40;39.75;;;15.00;99.90;;;;;;5090086;28;20089;-82
2023/04/23 06:52:25;;;;;;;56.60;39.38;;;15.50;99.90;;;;;;5090777;28;20387;-81
2023/04/23 06:54:51;;;;;;;58.80;41.38;;;15.40;99.90;;;;;;5073335;28;20475;-81
2023/04/23 06:57:17;;;;;;;54.95;38.75;;;15.80;99.90;;;;;;5074042;28;20059;-82
2023/04/23 06:59:42;;;;;;;54.58;37.90;;;16.00;99.90;;;;;;5091667;28;20052;-83
2023/04/23 07:02:08;;;;;;;50.72;37.28;;;16.10;99.90;;;;;;5073814;28;20074;-82
2023/04/23 07:04:34;;;;;;;46.75;35.38;;;16.00;99.90;;;;;;5093190;28;20074;-82
2023/04/23 07:06:59;;;;;;;49.42;35.80;;;16.40;99.90;;;;;;5095928;28;20044;-83
2023/04/23 07:09:26;;;;;;;45.72;32.92;;;16.30;99.90;;;;;;5073485;28;20040;-82
2023/04/23 07:11:58;;;;;;;43.58;33.80;;;16.30;99.90;;;;;;5074414;28;20132;-81
2023/04/23 07:14:24;;;;;;;45.30;33.38;;;16.50;99.90;;;;;;5090423;28;20467;-83
2023/04/23 07:16:50;;;;;;;44.92;32.88;;;16.90;99.90;;;;;;5073443;28;20055;-83
2023/04/23 07:19:16;;;;;;;40.30;30.77;;;16.90;99.90;;;;;;5075376;28;20055;-82
2023/04/23 07:21:43;;;;;;;40.53;30.85;;;17.30;99.90;;;;;;5110964;28;20355;-83
2023/04/23 07:24:10;;;;;;;42.30;32.63;;;17.40;99.90;;;;;;5076790;28;20048;-83
2023/04/23 07:26:36;;;;;;;43.90;31.67;;;17.20;99.90;;;;;;5059620;28;20088;-83
2023/04/23 07:29:02;;;;;;;39.72;31.08;;;17.50;99.90;;;;;;5076623;28;20051;-83
2023/04/23 07:31:28;;;;;;;39.00;30.67;;;17.30;99.90;;;;;;5093151;28;20047;-83
2023/04/23 07:33:55;;;;;;;38.72;30.42;;;17.60;99.90;;;;;;5111827;28;20040;-83
2023/04/23 07:36:21;;;;;;;39.67;30.35;;;17.30;99.90;;;;;;5093253;28;20222;-83
2023/04/23 07:38:46;;;;;;;39.30;30.08;;;17.80;99.90;;;;;;5093138;28;20423;-83
2023/04/23 07:41:12;;;;;;;39.53;30.38;;;18.00;99.90;;;;;;5094313;27;20567;-83
2023/04/23 07:43:38;;;;;;;37.75;29.85;;;18.00;99.90;;;;;;5102815;28;20071;-85
2023/04/23 07:46:06;;;;;;;36.40;28.90;;;17.20;99.90;;;;;;5124177;27;20047;-83
2023/04/23 07:48:39;;;;;;;35.53;29.90;;;17.30;99.90;;;;;;5054606;27;20043;-85
2023/04/23 07:51:05;;;;;;;37.03;29.33;;;16.70;99.90;;;;;;5102269;27;20100;-85
2023/04/23 07:53:31;;;;;;;36.58;29.77;;;17.30;99.90;;;;;;5087508;27;20050;-86
2023/04/23 07:55:56;;;;;;;36.75;28.92;;;17.60;99.90;;;;;;5095886;27;20035;-86
2023/04/23 07:58:23;;;;;;;33.88;28.40;;;17.60;99.90;;;;;;5042163;28;20039;-84
2023/04/23 08:00:49;;;;;;;39.30;30.00;;;17.40;99.90;;;;;;5077446;27;20048;-85
2023/04/23 08:03:15;;;;;;;33.58;28.30;;;17.40;99.90;;;;;;5083561;27;20148;-85
2023/04/23 08:05:41;;;;;;;36.55;28.58;;;17.70;99.90;;;;;;5123351;27;20114;-85
2023/04/23 08:08:07;;;;;;;32.10;27.15;;;17.60;99.90;;;;;;5092857;27;20032;-86
2023/04/23 08:10:36;;;;;;;34.30;27.83;;;17.70;99.90;;;;;;5115333;27;20034;-85
2023/04/23 08:13:01;;;;;;;33.05;26.88;;;18.10;99.90;;;;;;5084099;27;20043;-84
2023/04/23 08:15:27;;;;;;;32.53;26.08;;;18.30;99.90;;;;;;5085021;27;20046;-85
2023/04/23 08:17:53;;;;;;;30.25;25.35;;;18.30;99.90;;;;;;5121874;27;20117;-85
2023/04/23 08:20:19;;;;;;;27.80;24.65;;;18.60;99.90;;;;;;5084355;27;20066;-86
2023/04/23 08:22:49;;;;;;;29.45;24.63;;;18.80;99.90;;;;;;5080902;27;20440;-86
2023/04/23 08:25:16;;;;;;;29.58;23.83;;;19.50;99.20;;;;;;5097182;27;20044;-88
2023/04/23 08:27:41;;;;;;;26.60;22.52;;;19.80;99.60;;;;;;5082879;27;20043;-87
2023/04/23 08:30:09;;;;;;;26.75;22.55;;;19.50;98.10;;;;;;5102911;27;20047;-86
2023/04/23 08:32:35;;;;;;;27.70;23.80;;;19.40;98.10;;;;;;5124216;27;20040;-86
2023/04/23 08:35:01;;;;;;;27.67;23.92;;;19.90;98.10;;;;;;5086395;27;20073;-87
2023/04/23 08:37:26;;;;;;;25.13;21.67;;;19.60;97.60;;;;;;5103593;27;20126;-87
2023/04/23 08:39:52;;;;;;;25.00;20.88;;;19.70;96.80;;;;;;5069075;27;20047;-84
2023/04/23 08:42:38;;;;;;;24.10;19.17;;;19.70;98.00;;;;;;5118553;27;20089;-85
2023/04/23 08:45:04;;;;;;;22.35;19.15;;;20.00;96.90;;;;;;5072570;27;20063;-84
2023/04/23 08:47:29;;;;;;;23.65;20.60;;;20.00;98.10;;;;;;5103154;27;20119;-85
2023/04/23 08:49:55;;;;;;;24.63;20.35;;;19.40;96.80;;;;;;5080323;27;20118;-85
2023/04/23 08:52:25;;;;;;;23.23;19.10;;;19.80;98.00;;;;;;5076239;27;20051;-83
2023/04/23 08:54:58;;;;;;;21.48;17.85;;;19.50;95.40;;;;;;5089868;27;20061;-83
2023/04/23 08:57:24;;;;;;;20.88;17.88;;;20.30;96.20;;;;;;5096573;27;20490;-84
2023/04/23 08:59:50;;;;;;;20.25;17.77;;;20.10;98.10;;;;;;5112671;27;20043;-83
2023/04/23 09:02:17;;;;;;;18.40;16.25;;;20.30;96.40;;;;;;5078428;27;20078;-82
2023/04/23 09:04:44;;;;;;;20.33;16.90;;;20.70;96.00;;;;;;5096357;28;20051;-85
2023/04/23 09:07:10;;;;;;;18.33;16.15;;;20.00;94.80;;;;;;5094236;27;20067;-83
2023/04/23 09:09:39;;;;;;;16.77;13.75;;;20.00;96.00;;;;;;5112183;28;20093;-84
2023/04/23 09:12:05;;;;;;;15.48;12.85;;;20.00;95.80;;;;;;5112500;28;20047;-84
2023/04/23 09:14:31;;;;;;;18.92;14.43;;;20.20;95.40;;;;;;5095157;28;20096;-83
2023/04/23 09:16:57;;;;;;;16.42;14.27;;;20.00;95.00;;;;;;5095359;28;20050;-85
2023/04/23 09:19:26;;;;;;;16.65;12.93;;;19.70;96.40;;;;;;5109673;28;20129;-83
2023/04/23 09:21:52;;;;;;;17.85;13.48;;;20.00;96.30;;;;;;5075824;28;20059;-84
2023/04/23 09:24:17;;;;;;;17.63;12.73;;;20.70;96.70;;;;;;5075702;28;20100;-84
2023/04/23 09:26:47;;;;;;;17.50;13.20;;;21.10;93.70;;;;;;5092859;28;20058;-83
2023/04/23 09:29:20;;;;;;;16.80;12.90;;;20.70;94.80;;;;;;5084463;28;20108;-85
2023/04/23 09:31:46;;;;;;;16.52;13.50;;;20.80;95.30;;;;;;5074098;28;20036;-85
2023/04/23 09:34:15;;;;;;;16.15;12.57;;;19.40;95.20;;;;;;5092558;28;20478;-84
2023/04/23 09:36:41;;;;;;;15.48;12.23;;;19.00;95.60;;;;;;5112099;28;20043;-84
2023/04/23 09:39:23;;;;;;;14.65;11.50;;;19.00;96.40;;;;;;5094767;28;20067;-84
2023/04/23 09:41:50;;;;;;;15.88;11.68;;;19.50;96.50;;;;;;5112077;28;20108;-84
2023/04/23 09:44:25;;;;;;;18.05;14.10;;;19.60;96.20;;;;;;5111924;28;20099;-84
2023/04/23 09:46:50;;;;;;;16.77;12.50;;;19.60;97.50;;;;;;5112766;28;20436;-84
2023/04/23 09:49:17;;;;;;;14.48;10.40;;;20.00;96.00;;;;;;5078252;28;20876;-83
2023/04/23 09:51:44;;;;;;;13.68;10.20;;;19.00;95.10;;;;;;5131489;27;20122;-83
2023/04/23 09:54:20;;;;;;;15.10;12.10;;;19.60;96.20;;;;;;5098971;27;20122;-84
2023/04/23 09:56:50;;;;;;;14.88;11.43;;;19.60;95.90;;;;;;5099328;27;20055;-82
2023/04/23 09:59:24;;;;;;;13.75;11.05;;;19.30;95.90;;;;;;5090325;27;20530;-83
2023/04/23 10:01:51;;;;;;;11.20;9.15;;;19.90;95.50;;;;;;5122248;27;20043;-82
2023/04/23 10:04:23;;;;;;;12.88;9.23;;;19.80;95.40;;;;;;5102476;27;20101;-84
2023/04/23 10:06:59;;;;;;;13.32;9.93;;;19.70;96.50;;;;;;5074090;27;20047;-84
2023/04/23 10:09:27;;;;;;;11.38;9.20;;;20.10;94.50;;;;;;5079822;27;20408;-85
2023/04/23 10:11:54;;;;;;;11.93;9.60;;;20.90;93.90;;;;;;5124976;27;20054;-85
2023/04/23 10:14:24;;;;;;;13.00;9.23;;;20.40;94.00;;;;;;5116596;27;20047;-84
2023/04/23 10:16:50;;;;;;;12.00;8.73;;;20.90;94.20;;;;;;5099519;27;20054;-84
2023/04/23 10:19:22;;;;;;;11.50;8.88;;;20.50;94.10;;;;;;5103815;27;20084;-83
2023/04/23 10:21:57;;;;;;;11.70;9.02;;;20.20;94.00;;;;;;5099752;27;20513;-85
2023/04/23 10:24:23;;;;;;;10.93;8.15;;;19.80;94.40;;;;;;5116119;27;20399;-85
2023/04/23 10:26:50;;;;;;;11.93;8.55;;;19.50;95.80;;;;;;5133603;27;20383;-84
2023/04/23 10:29:16;;;;;;;11.30;8.25;;;19.40;94.60;;;;;;5084098;27;20055;-85
2023/04/23 10:31:42;;;;;;;11.30;8.20;;;19.40;96.00;;;;;;5082262;27;20061;-85
2023/04/23 10:34:09;;;;;;;11.45;7.30;;;19.20;96.90;;;;;;5097925;27;20410;-83
2023/04/23 10:36:38;;;;;;;11.73;7.60;;;19.20;96.10;;;;;;5081069;27;20047;-82
2023/04/23 10:39:07;;;;;;;8.63;5.68;;;19.40;96.60;;;;;;5115335;27;20103;-84
2023/04/23 10:41:40;;;;;;;11.52;5.63;;;19.90;94.80;;;;;;5116046;27;20054;-84
2023/04/23 10:44:06;;;;;;;7.80;5.78;;;20.00;92.30;;;;;;5114671;27;20489;-84
2023/04/23 10:46:32;;;;;;;11.55;6.38;;;20.00;94.00;;;;;;5080791;27;20483;-84
2023/04/23 10:49:18;;;;;;;7.95;5.20;;;20.30;93.60;;;;;;5114630;27;20051;-83
2023/04/23 10:51:47;;;;;;;11.43;5.07;;;20.60;92.70;;;;;;5113674;27;20059;-83
2023/04/23 10:54:17;;;;;;;7.30;4.18;;;20.40;93.20;;;;;;5115240;27;20058;-83
2023/04/23 10:56:43;;;;;;;7.70;4.47;;;20.60;92.80;;;;;;5097822;27;20144;-83
2023/04/23 10:59:21;;;;;;;6.07;3.55;;;20.50;92.20;;;;;;5114655;27;20058;-82
2023/04/23 11:01:48;;;;;;;6.22;3.97;;;20.70;91.30;;;;;;5080975;27;20047;-83
2023/04/23 11:04:24;;;;;;;7.55;4.43;;;19.60;92.80;;;;;;5114451;27;20059;-83
2023/04/23 11:06:52;;;;;;;6.68;3.60;;;19.90;92.50;;;;;;5081104;27;20395;-86
2023/04/23 11:09:33;;;;;;;5.47;4.00;;;20.10;92.50;;;;;;5107645;27;20665;-83
2023/04/23 11:12:00;;;;;;;6.43;3.33;;;19.70;91.80;;;;;;5088332;27;20116;-83
2023/04/23 11:14:36;;;;;;;6.25;3.78;;;20.00;93.00;;;;;;5066615;28;20054;-84
2023/04/23 11:17:03;;;;;;;6.57;3.30;;;20.00;93.00;;;;;;5076333;28;20053;-85
2023/04/23 11:19:30;;;;;;;6.85;3.67;;;19.90;93.10;;;;;;5091059;27;20126;-83
2023/04/23 11:22:12;;;;;;;7.47;3.25;;;19.70;91.70;;;;;;5101841;27;20127;-86
2023/04/23 11:24:41;;;;;;;7.78;3.40;;;19.90;91.60;;;;;;5084619;27;20039;-84
2023/04/23 11:27:17;;;;;;;7.35;3.28;;;19.80;91.80;;;;;;5099402;27;20052;-85
2023/04/23 11:29:44;;;;;;;6.28;3.42;;;19.20;92.70;;;;;;5101157;27;20106;-85
2023/04/23 11:32:12;;;;;;;7.97;3.78;;;19.10;93.30;;;;;;5101807;27;20058;-85
2023/04/23 11:34:39;;;;;;;4.80;3.30;;;19.20;93.10;;;;;;5070716;27;20051;-86
2023/04/23 11:37:05;;;;;;;8.10;2.45;;;19.10;93.40;;;;;;5087034;27;20046;-86
2023/04/23 11:39:31;;;;;;;5.57;2.47;;;19.60;92.90;;;;;;5062078;27;20532;-85
2023/04/23 11:42:01;;;;;;;6.90;2.40;;;19.60;92.50;;;;;;5085577;27;20047;-84
2023/04/23 11:44:27;;;;;;;4.82;1.92;;;19.40;91.20;;;;;;5101752;27;20116;-85
2023/04/23 11:47:17;;;;;;;3.63;1.88;;;19.70;90.50;;;;;;5084836;27;20502;-84
2023/04/23 11:49:45;;;;;;;3.55;1.95;;;19.40;89.10;;;;;;5081517;28;20504;-85
2023/04/23 11:52:14;;;;;;;5.25;1.80;;;19.60;89.60;;;;;;5059528;28;20044;-84
2023/04/23 11:54:40;;;;;;;5.07;1.77;;;20.40;90.00;;;;;;5043497;28;20048;-84
2023/04/23 11:57:16;;;;;;;7.30;1.98;;;20.00;88.70;;;;;;5111108;28;20253;-84
2023/04/23 11:59:43;;;;;;;5.97;1.90;;;20.00;89.60;;;;;;5091079;28;20135;-84
2023/04/23 12:02:12;;;;;;;5.22;1.80;;;19.70;88.10;;;;;;5058999;28;20052;-82
2023/04/23 12:04:55;;;;;;;5.03;2.13;;;19.90;90.60;;;;;;5081912;27;20390;-83
2023/04/23 12:07:31;;;;;;;5.03;1.70;;;20.00;89.20;;;;;;5094330;27;20039;-83
2023/04/23 12:09:59;;;;;;;2.95;1.85;;;20.40;88.60;;;;;;5114666;27;20054;-84
2023/04/23 12:12:39;;;;;;;3.92;1.83;;;20.50;87.30;;;;;;5080847;27;20065;-83
2023/04/23 12:15:11;;;;;;;3.47;1.80;;;20.60;86.00;;;;;;5081478;27;20096;-83
2023/04/23 12:17:37;;;;;;;5.20;1.80;;;20.20;86.60;;;;;;5098630;27;20580;-85
2023/04/23 12:20:16;;;;;;;4.97;2.00;;;19.90;86.80;;;;;;5121086;28;20048;-84
2023/04/23 12:22:53;;;;;;;4.72;2.00;;;20.10;87.70;;;;;;5101929;28;20047;-84
2023/04/23 12:25:23;;;;;;;7.80;2.30;;;20.00;88.90;;;;;;5110455;28;20046;-83
2023/04/23 12:27:53;;;;;;;6.75;1.90;;;19.90;88.10;;;;;;5081091;28;20062;-84
2023/04/23 12:30:19;;;;;;;5.40;1.85;;;20.10;87.80;;;;;;5055681;28;20055;-84
2023/04/23 12:32:48;;;;;;;2.85;1.70;;;20.10;86.00;;;;;;5104660;28;20047;-84
2023/04/23 12:35:14;;;;;;;4.47;2.10;;;20.00;86.40;;;;;;5084569;28;20064;-83
2023/04/23 12:37:40;;;;;;;3.25;1.60;;;20.30;88.80;;;;;;5069919;28;20118;-83
2023/04/23 12:40:18;;;;;;;6.85;2.10;;;20.20;85.70;;;;;;5088786;28;20120;-82
2023/04/23 12:42:46;;;;;;;5.00;1.88;;;20.10;87.50;;;;;;5046644;28;20039;-82
2023/04/23 12:45:12;;;;;;;4.55;1.85;;;20.20;87.40;;;;;;5046274;28;20489;-83
2023/04/23 12:47:38;;;;;;;6.95;1.90;;;20.10;87.30;;;;;;5049353;28;20180;-84
2023/04/23 12:50:06;;;;;;;3.78;1.83;;;20.10;89.80;;;;;;5043863;28;21243;-83
2023/04/23 12:52:32;;;;;;;4.53;1.85;;;20.30;89.50;;;;;;5075078;28;20128;-83
2023/04/23 12:55:00;;;;;;;3.72;1.90;;;20.10;86.80;;;;;;5057277;28;20048;-82
2023/04/23 12:57:27;;;;;;;6.82;2.00;;;20.00;85.30;;;;;;5080225;28;20047;-83
2023/04/23 12:59:55;;;;;;;3.95;1.88;;;19.70;86.20;;;;;;5095719;28;20134;-82
2023/04/23 13:02:25;;;;;;;5.72;2.13;;;20.00;86.80;;;;;;5081206;28;20146;-83
2023/04/23 13:04:58;;;;;;;4.88;1.85;;;20.20;87.50;;;;;;5100035;28;20063;-84
2023/04/23 13:07:25;;;;;;;3.33;1.60;;;19.90;86.90;;;;;;5065628;28;20484;-84